テヘラン の空港の天気 - METARとTAF

メヘラーバード国際空港(テヘラン) ( OIII / THR ) - イラン テヘラン
飛行場実況気象(Metar)
観測時間05/25 15:00 +0430 (05/25 10:30 UTC)
風向・風速西 8m/s
視程10km以上
天気現象
なし
気温31℃
湿度4%
気圧1015hPa
METAROIII 251030Z 28016KT CAVOK 31/M15 Q1015 A2997 NOSIG
過去の天気等 Google飛行場航空写真 Wunderground天気予報

過去48時間のMETAR

飛行場予報(TAF)
発表時間: 5/25 09:30 +0430 (5/25 05:00 UTC)
予報対象時間: 25日10時 +0430 ~ 26日16時 +0430
風向・風速南西 5m/s
視程10km以上
なし
25日10時 +0430 ~ 25日16時 +0430 に一時的に
風向・風速西北西 8m/s
視程8,000m
少しの雲 雲底高度 1,220m
全天の4割程度の雲 雲底高度 3,050m
25日21時 +0430 ~ 25日23時 +0430 に徐々に
風向・風速北西 5m/s
26日11時 +0430 ~ 26日13時 +0430 に徐々に
風向・風速南南西 4m/s
TAF OIII 250500Z 2506/2612 22005MPS CAVOK
TEMPO 2506/2512 29008MPS 8000 FEW040 SCT100
BECMG 2517/2519 32005MPS
BECMG 2607/2609 21004MPS